Station Historical Data
Daily Summary for October 26, 2017 Units:  Metric    English   Both
« Previous Day
Next Day »
Daily Weekly Monthly Yearly Custom
  High: Low: Average:
Temperature: 14.5 °C 5.1 °C 10.9 °C
Dew Point: 9.8 °C 2.4 °C 8.2 °C
Humidity: 88% 73% 83%
Wind Speed: 0km/h 0km/h 0km/h
Wind Gust: 0km/h - -
Wind- -
Pressure: 1018.2 hPa 1015.8 hPa -
Precipitation: 0 mm    
Historical Graphs
 
 
Tabular Data for October 26, 2017
Time Temperature Dew Point Pressure Wind Wind Speed Wind Gust Humidity Rainfall Rate (Hourly) solar Conditions
00:03 5.2 °C 2.6 °C 1015.8 hPa Calm     83% 0 mm WeatherDisplay:10.37 W/m2 CLR
00:08 5.2 °C 2.7 °C 1015.8 hPa Calm     84% 0 mm WeatherDisplay:10.37 W/m2 CLR
00:13 5.2 °C 2.5 °C 1015.8 hPa Calm     83% 0 mm WeatherDisplay:10.37 W/m2 CLR
00:18 5.1 °C 2.4 °C 1015.8 hPa Calm     83% 0 mm WeatherDisplay:10.37 W/m2 CLR
00:24 5.2 °C 2.7 °C 1015.8 hPa Calm     84% 0 mm WeatherDisplay:10.37 W/m2 CLR
00:29 5.1 °C 2.6 °C 1015.8 hPa Calm     84% 0 mm WeatherDisplay:10.37 W/m2 CLR
00:34 5.1 °C 2.6 °C 1015.8 hPa Calm     84% 0 mm WeatherDisplay:10.37 W/m2 CLR
19:25 14.5 °C 9.7 °C 1015.8 hPa Calm     73% 0 mm WeatherDisplay:10.37 W/m2 CLR
19:30 14.2 °C 9.4 °C 1015.8 hPa Calm     73% 0 mm WeatherDisplay:10.37 W/m2 CLR
19:35 14.1 °C 9.4 °C 1015.8 hPa Calm     74% 0 mm WeatherDisplay:10.37 W/m2 CLR
19:40 13.8 °C 9.7 °C 1015.8 hPa Calm     76% 0 mm WeatherDisplay:10.37 W/m2 CLR
19:45 13.7 °C 9.5 °C 1015.8 hPa Calm     76% 0 mm WeatherDisplay:10.37 W/m2 CLR
19:50 13.5 °C 9.6 °C 1016.1 hPa Calm     77% 0 mm WeatherDisplay:10.37 W/m2 CLR
19:55 13.3 °C 9.8 °C 1016.1 hPa Calm     79% 0 mm WeatherDisplay:10.37 W/m2 CLR
20:00 13.2 °C 9.6 °C 1016.1 hPa Calm     79% 0 mm WeatherDisplay:10.37 W/m2 CLR
20:05 12.9 °C 9.6 °C 1016.1 hPa Calm     80% 0 mm WeatherDisplay:10.37 W/m2 CLR
20:10 12.7 °C 9.4 °C 1016.1 hPa Calm     80% 0 mm WeatherDisplay:10.37 W/m2 CLR
20:15 12.6 °C 9.2 °C 1016.1 hPa Calm     80% 0 mm WeatherDisplay:10.37 W/m2 CLR
20:20 12.4 °C 9.3 °C 1016.5 hPa Calm     81% 0 mm WeatherDisplay:10.37 W/m2 CLR
20:25 12.4 °C 9.4 °C 1016.5 hPa Calm     82% 0 mm WeatherDisplay:10.37 W/m2 CLR
20:30 12.3 °C 9.3 °C 1016.5 hPa Calm     82% 0 mm WeatherDisplay:10.37 W/m2 CLR
20:35 12.1 °C 9.1 °C 1016.5 hPa Calm     82% 0 mm WeatherDisplay:10.37 W/m2 CLR
20:40 12 °C 9.2 °C 1016.8 hPa Calm     83% 0 mm WeatherDisplay:10.37 W/m2 CLR
20:45 12.1 °C 9.4 °C 1016.8 hPa Calm     84% 0 mm WeatherDisplay:10.37 W/m2 CLR
20:55 12.3 °C 9.2 °C 1016.8 hPa Calm     81% 0 mm WeatherDisplay:10.37 W/m2 CLR
21:00 12.3 °C 9.3 °C 1016.8 hPa Calm     82% 0 mm WeatherDisplay:10.37 W/m2 CLR
21:10 12.1 °C 9.1 °C 1016.8 hPa Calm     82% 0 mm WeatherDisplay:10.37 W/m2 CLR
21:15 12 °C 9 °C 1016.8 hPa Calm     82% 0 mm WeatherDisplay:10.37 W/m2 CLR
21:20 11.9 °C 9.1 °C 1016.8 hPa Calm     83% 0 mm WeatherDisplay:10.37 W/m2 CLR
21:25 11.8 °C 9 °C 1016.8 hPa Calm     83% 0 mm WeatherDisplay:10.37 W/m2 CLR
21:30 11.6 °C 9 °C 1017.2 hPa Calm     84% 0 mm WeatherDisplay:10.37 W/m2 CLR
21:35 11.5 °C 8.9 °C 1017.2 hPa Calm     84% 0 mm WeatherDisplay:10.37 W/m2 CLR
21:40 11.4 °C 8.9 °C 1017.2 hPa Calm     85% 0 mm WeatherDisplay:10.37 W/m2 CLR
21:45 11.3 °C 8.8 °C 1017.2 hPa Calm     85% 0 mm WeatherDisplay:10.37 W/m2 CLR
21:50 11.1 °C 8.7 °C 1017.2 hPa Calm     85% 0 mm WeatherDisplay:10.37 W/m2 CLR
21:55 11.1 °C 8.8 °C 1017.2 hPa Calm     86% 0 mm WeatherDisplay:10.37 W/m2 CLR
22:00 11 °C 8.8 °C 1017.2 hPa Calm     86% 0 mm WeatherDisplay:10.37 W/m2 CLR
22:05 11 °C 8.9 °C 1017.2 hPa Calm     87% 0 mm WeatherDisplay:10.37 W/m2 CLR
22:10 11 °C 8.9 °C 1017.2 hPa Calm     87% 0 mm WeatherDisplay:10.37 W/m2 CLR
22:15 10.9 °C 8.9 °C 1017.2 hPa Calm     87% 0 mm WeatherDisplay:10.37 W/m2 CLR
22:20 10.9 °C 8.8 °C 1017.2 hPa Calm     87% 0 mm WeatherDisplay:10.37 W/m2 CLR
22:25 10.9 °C 8.8 °C 1017.5 hPa Calm     87% 0 mm WeatherDisplay:10.37 W/m2 CLR
22:30 11 °C 9.1 °C 1017.5 hPa Calm     88% 0 mm WeatherDisplay:10.37 W/m2 CLR
22:35 11.2 °C 9.1 °C 1017.5 hPa Calm     87% 0 mm WeatherDisplay:10.37 W/m2 CLR
22:40 11.2 °C 8.9 °C 1017.5 hPa Calm     86% 0 mm WeatherDisplay:10.37 W/m2 CLR
22:45 11.3 °C 8.8 °C 1017.5 hPa Calm     85% 0 mm WeatherDisplay:10.37 W/m2 CLR
22:50 11.3 °C 8.7 °C 1017.5 hPa Calm     84% 0 mm WeatherDisplay:10.37 W/m2 CLR
22:55 11.3 °C 8.7 °C 1017.5 hPa Calm     84% 0 mm WeatherDisplay:10.37 W/m2 CLR
23:00 11.3 °C 8.8 °C 1017.5 hPa Calm     85% 0 mm WeatherDisplay:10.37 W/m2 CLR
23:05 11.2 °C 8.7 °C 1017.8 hPa Calm     85% 0 mm WeatherDisplay:10.37 W/m2 CLR
23:10 11.1 °C 8.6 °C 1017.8 hPa Calm     85% 0 mm WeatherDisplay:10.37 W/m2 CLR
23:15 10.9 °C 8.4 °C 1017.8 hPa Calm     85% 0 mm WeatherDisplay:10.37 W/m2 CLR
23:20 10.7 °C 8.5 °C 1017.8 hPa Calm     86% 0 mm WeatherDisplay:10.37 W/m2 CLR
23:25 10.6 °C 8.3 °C 1017.8 hPa Calm     86% 0 mm WeatherDisplay:10.37 W/m2 CLR
23:30 10.4 °C 8.2 °C 1017.8 hPa Calm     86% 0 mm WeatherDisplay:10.37 W/m2 CLR
23:36 10.2 °C 8.2 °C 1017.8 hPa Calm     87% 0 mm WeatherDisplay:10.37 W/m2 CLR
23:41 10.2 °C 8.1 °C 1017.8 hPa Calm     87% 0 mm WeatherDisplay:10.37 W/m2 CLR
23:46 10.1 °C 8.2 °C 1017.8 hPa Calm     88% 0 mm WeatherDisplay:10.37 W/m2 CLR
23:51 10 °C 8.1 °C 1018.2 hPa Calm     88% 0 mm WeatherDisplay:10.37 W/m2 CLR
23:56 9.9 °C 8 °C 1018.2 hPa Calm     88% 0 mm WeatherDisplay:10.37 W/m2 CLR
Piedmont Bend
Compliments of Weather Underground - 4 mb